N55R KMIA-FLL
Flight info
| Callsign | N55R |
|---|---|
| Flight time | N/A |
| Altitude | VFR/025 |
| Route | EAST SHORELINE |
| Aircraft | C172/L-DOV/C |
Departure
| Time | 2026-05-04 18:40 |
|---|---|
| Airport | Miami International Airport (KMIA) |
Arrival
| Time | N/A |
|---|---|
| Airport | FLL |
| Time | Latitude | Longitude | Altitude | Speed | Heading |
|---|---|---|---|---|---|
| 2026-05-04 18:32 | 25.79429 | -80.28450 | 17 ft | 0 kts | 38° |
| 2026-05-04 18:33 | 25.79426 | -80.28442 | 17 ft | 3 kts | 169° |
| 2026-05-04 18:33 | 25.79417 | -80.28456 | 17 ft | 4 kts | 243° |
| 2026-05-04 18:33 | 25.79390 | -80.28483 | 17 ft | 3 kts | 214° |
| 2026-05-04 18:33 | 25.79390 | -80.28484 | 17 ft | 0 kts | 215° |
| 2026-05-04 18:34 | 25.79388 | -80.28485 | 17 ft | 3 kts | 215° |
| 2026-05-04 18:34 | 25.79386 | -80.28487 | 17 ft | 0 kts | 216° |
| 2026-05-04 18:35 | 25.79385 | -80.28487 | 17 ft | 1 kts | 216° |
| 2026-05-04 18:35 | 25.79388 | -80.28522 | 17 ft | 8 kts | 289° |
| 2026-05-04 18:35 | 25.79364 | -80.28569 | 16 ft | 4 kts | 164° |
| 2026-05-04 18:35 | 25.79337 | -80.28593 | 15 ft | 12 kts | 250° |
| 2026-05-04 18:36 | 25.79313 | -80.28698 | 12 ft | 17 kts | 255° |
| 2026-05-04 18:36 | 25.79346 | -80.28839 | 13 ft | 20 kts | 295° |
| 2026-05-04 18:36 | 25.79406 | -80.28959 | 15 ft | 20 kts | 300° |
| 2026-05-04 18:36 | 25.79490 | -80.29123 | 16 ft | 29 kts | 300° |
| 2026-05-04 18:37 | 25.79527 | -80.29195 | 17 ft | 9 kts | 301° |
| 2026-05-04 18:37 | 25.79587 | -80.29314 | 17 ft | 25 kts | 300° |
| 2026-05-04 18:37 | 25.79689 | -80.29513 | 15 ft | 33 kts | 299° |
| 2026-05-04 18:37 | 25.79809 | -80.29747 | 11 ft | 31 kts | 300° |
| 2026-05-04 18:38 | 25.79902 | -80.29928 | 12 ft | 21 kts | 297° |
| 2026-05-04 18:38 | 25.79928 | -80.29979 | 11 ft | 0 kts | 295° |
| 2026-05-04 18:39 | 25.79973 | -80.30040 | 11 ft | 17 kts | 334° |
| 2026-05-04 18:39 | 25.80078 | -80.29973 | 11 ft | 22 kts | 87° |
| 2026-05-04 18:39 | 25.80092 | -80.29609 | 13 ft | 71 kts | 89° |
| 2026-05-04 18:39 | 25.80120 | -80.29058 | 241 ft | 69 kts | 87° |
| 2026-05-04 18:40 | 25.80149 | -80.28504 | 397 ft | 79 kts | 87° |
| 2026-05-04 18:40 | 25.80184 | -80.27903 | 611 ft | 82 kts | 86° |
| 2026-05-04 18:40 | 25.80233 | -80.27209 | 682 ft | 104 kts | 85° |
| 2026-05-04 18:40 | 25.80325 | -80.26393 | 834 ft | 108 kts | 81° |
| 2026-05-04 18:41 | 25.80434 | -80.25564 | 1012 ft | 109 kts | 83° |
| 2026-05-04 18:41 | 25.80536 | -80.24723 | 1178 ft | 110 kts | 83° |
| 2026-05-04 18:41 | 25.80637 | -80.23879 | 1352 ft | 110 kts | 83° |
| 2026-05-04 18:41 | 25.80739 | -80.23037 | 1527 ft | 110 kts | 83° |
| 2026-05-04 18:42 | 25.80839 | -80.22196 | 1701 ft | 110 kts | 83° |
| 2026-05-04 18:42 | 25.80940 | -80.21354 | 1875 ft | 110 kts | 83° |
| 2026-05-04 18:42 | 25.81043 | -80.20508 | 1995 ft | 115 kts | 81° |
| 2026-05-04 18:42 | 25.81264 | -80.19612 | 2008 ft | 125 kts | 74° |
| 2026-05-04 18:43 | 25.81575 | -80.18688 | 2007 ft | 130 kts | 68° |
| 2026-05-04 18:43 | 25.82102 | -80.17882 | 2000 ft | 131 kts | 41° |
| 2026-05-04 18:43 | 25.82775 | -80.17214 | 1995 ft | 127 kts | 42° |
| 2026-05-04 18:43 | 25.83428 | -80.16563 | 1993 ft | 127 kts | 42° |
| 2026-05-04 18:44 | 25.84087 | -80.15905 | 1995 ft | 128 kts | 42° |
| 2026-05-04 18:44 | 25.84534 | -80.15459 | 1999 ft | 128 kts | 42° |
| 2026-05-04 18:44 | 25.85439 | -80.14562 | 1990 ft | 131 kts | 42° |
| 2026-05-04 18:44 | 25.86119 | -80.13875 | 1994 ft | 133 kts | 42° |
| 2026-05-04 18:45 | 25.86810 | -80.13188 | 1985 ft | 129 kts | 40° |
| 2026-05-04 18:45 | 25.87546 | -80.12622 | 1995 ft | 130 kts | 25° |
| 2026-05-04 18:45 | 25.88416 | -80.12303 | 2000 ft | 133 kts | 12° |
| 2026-05-04 18:45 | 25.89322 | -80.12062 | 1997 ft | 133 kts | 14° |
| 2026-05-04 18:46 | 25.90209 | -80.11826 | 1993 ft | 129 kts | 13° |
| 2026-05-04 18:46 | 25.91080 | -80.11599 | 1991 ft | 128 kts | 13° |
| 2026-05-04 18:46 | 25.91944 | -80.11375 | 1991 ft | 127 kts | 13° |
| 2026-05-04 18:46 | 25.92807 | -80.11151 | 1991 ft | 127 kts | 13° |
| 2026-05-04 18:47 | 25.93670 | -80.10927 | 1991 ft | 127 kts | 13° |
| 2026-05-04 18:47 | 25.94532 | -80.10704 | 1991 ft | 127 kts | 13° |
| 2026-05-04 18:47 | 25.95396 | -80.10480 | 1991 ft | 127 kts | 13° |
| 2026-05-04 18:47 | 25.96258 | -80.10257 | 1992 ft | 127 kts | 13° |
| 2026-05-04 18:48 | 25.97120 | -80.10033 | 1992 ft | 127 kts | 13° |
| 2026-05-04 18:48 | 25.97983 | -80.09809 | 1993 ft | 127 kts | 13° |
| 2026-05-04 18:48 | 25.98845 | -80.09585 | 1992 ft | 127 kts | 13° |
| 2026-05-04 18:48 | 25.99706 | -80.09361 | 1994 ft | 127 kts | 13° |
| 2026-05-04 18:49 | 26.00569 | -80.09137 | 1994 ft | 127 kts | 13° |
| 2026-05-04 18:49 | 26.01431 | -80.08913 | 1994 ft | 127 kts | 13° |
| 2026-05-04 18:49 | 26.02292 | -80.08690 | 1995 ft | 127 kts | 13° |
| 2026-05-04 18:49 | 26.03157 | -80.08506 | 2007 ft | 125 kts | 359° |
| 2026-05-04 18:50 | 26.03840 | -80.08950 | 2052 ft | 114 kts | 287° |
| 2026-05-04 18:50 | 26.03821 | -80.09813 | 1940 ft | 119 kts | 265° |
| 2026-05-04 18:50 | 26.03814 | -80.10764 | 1703 ft | 127 kts | 275° |
| 2026-05-04 18:50 | 26.04001 | -80.11712 | 1461 ft | 124 kts | 291° |
| 2026-05-04 18:51 | 26.04295 | -80.12612 | 1158 ft | 122 kts | 294° |
| 2026-05-04 18:51 | 26.04758 | -80.13365 | 1015 ft | 116 kts | 314° |
| 2026-05-04 18:51 | 26.05344 | -80.13977 | 909 ft | 115 kts | 310° |
| 2026-05-04 18:51 | 26.05599 | -80.14764 | 847 ft | 107 kts | 265° |
| 2026-05-04 18:52 | 26.05546 | -80.15576 | 722 ft | 104 kts | 268° |
| 2026-05-04 18:52 | 26.05557 | -80.16354 | 618 ft | 99 kts | 282° |
| 2026-05-04 18:52 | 26.06053 | -80.16708 | 563 ft | 93 kts | 8° |
| 2026-05-04 18:52 | 26.06607 | -80.16416 | 263 ft | 96 kts | 74° |
| 2026-05-04 18:53 | 26.06590 | -80.15701 | 60 ft | 87 kts | 95° |
| 2026-05-04 18:53 | 26.06584 | -80.15110 | 20 ft | 64 kts | 91° |
| 2026-05-04 18:53 | 26.06584 | -80.14792 | 13 ft | 31 kts | 87° |
| 2026-05-04 18:53 | 26.06658 | -80.14677 | 13 ft | 11 kts | 345° |
| 2026-05-04 18:54 | 26.06684 | -80.14695 | 13 ft | 0 kts | 296° |
| 2026-05-04 18:54 | 26.06692 | -80.14719 | 13 ft | 15 kts | 278° |